createdAt,value
2023-04-18T00:02:59.186Z,11.35
2023-04-18T00:06:35.974Z,13.85
2023-04-18T00:10:08.449Z,12.85
2023-04-18T00:13:40.642Z,11.80
2023-04-18T00:17:13.431Z,12.70
2023-04-18T00:20:46.182Z,12.18
2023-04-18T00:24:18.191Z,16.13
2023-04-18T00:27:50.283Z,14.55
2023-04-18T00:31:22.134Z,11.68
2023-04-18T00:34:54.230Z,12.07
2023-04-18T00:38:26.152Z,14.82
2023-04-18T00:41:58.240Z,13.63
2023-04-18T00:45:30.128Z,14.93
2023-04-18T00:49:02.427Z,16.97
2023-04-18T00:52:36.001Z,16.13
2023-04-18T00:56:08.312Z,19.75
2023-04-18T00:59:40.680Z,16.93
2023-04-18T01:03:14.563Z,14.93
2023-04-18T01:06:46.987Z,14.98
2023-04-18T01:10:19.475Z,15.03
2023-04-18T01:14:08.321Z,16.23
2023-04-18T01:17:40.843Z,14.80
2023-04-18T01:21:12.679Z,17.33
2023-04-18T01:24:44.656Z,15.03
2023-04-18T01:28:16.648Z,17.15
2023-04-18T01:31:48.702Z,17.33
2023-04-18T01:35:20.427Z,17.33
2023-04-18T01:38:52.770Z,14.60
2023-04-18T01:42:24.484Z,17.77
2023-04-18T01:45:56.475Z,15.03
2023-04-18T01:49:28.234Z,20.10
2023-04-18T01:53:00.238Z,19.17
2023-04-18T01:56:32.065Z,17.15
2023-04-18T02:00:06.249Z,16.87
2023-04-18T02:03:38.218Z,15.68
2023-04-18T02:07:10.355Z,19.35
2023-04-18T02:10:42.669Z,17.27
2023-04-18T02:14:14.833Z,17.85
2023-04-18T02:17:46.807Z,16.27
2023-04-18T02:21:18.801Z,17.50
2023-04-18T02:24:50.604Z,16.92
2023-04-18T02:28:22.652Z,18.05
2023-04-18T02:31:54.679Z,20.60
2023-04-18T02:35:27.353Z,19.53
2023-04-18T02:38:59.591Z,17.80
2023-04-18T02:42:31.530Z,16.90
2023-04-18T02:46:03.644Z,15.93
2023-04-18T02:49:35.777Z,17.42
2023-04-18T02:53:07.563Z,16.63
2023-04-18T02:56:39.924Z,17.80
2023-04-18T03:00:13.679Z,18.63
2023-04-18T03:03:45.802Z,18.75
2023-04-18T03:07:17.413Z,15.63
2023-04-18T03:10:49.521Z,17.57
2023-04-18T03:14:21.159Z,19.30
2023-04-18T03:17:53.154Z,19.05
2023-04-18T03:21:24.848Z,19.70
2023-04-18T03:24:56.898Z,18.17
2023-04-18T03:28:29.040Z,17.42
2023-04-18T03:32:00.850Z,17.20
2023-04-18T03:35:33.019Z,19.00
2023-04-18T03:39:04.997Z,18.58
2023-04-18T03:42:37.048Z,21.05
2023-04-18T03:46:08.955Z,17.63
2023-04-18T03:49:41.246Z,19.33
2023-04-18T03:53:14.473Z,19.33
2023-04-18T03:56:46.435Z,19.13
2023-04-18T04:00:18.613Z,19.17
2023-04-18T04:03:50.689Z,18.20
2023-04-18T04:07:23.038Z,19.23
2023-04-18T04:10:54.956Z,19.45
2023-04-18T04:14:27.098Z,16.67
2023-04-18T04:17:59.218Z,19.02
2023-04-18T04:21:31.488Z,20.27
2023-04-18T04:25:04.877Z,19.70
2023-04-18T04:28:38.988Z,19.58
2023-04-18T04:32:10.893Z,17.83
2023-04-18T04:35:43.568Z,17.60
2023-04-18T04:39:15.970Z,19.88
2023-04-18T04:42:49.194Z,18.47
2023-04-18T04:46:21.611Z,17.95
2023-04-18T04:49:54.252Z,16.90
2023-04-18T04:53:30.221Z,19.13
2023-04-18T04:57:02.603Z,17.10
2023-04-18T05:00:34.726Z,16.77
2023-04-18T05:04:06.506Z,17.83
2023-04-18T05:07:38.529Z,13.53
2023-04-18T05:11:10.310Z,14.93
2023-04-18T05:14:42.927Z,18.67
2023-04-18T05:18:14.788Z,17.83
2023-04-18T05:21:46.812Z,15.68
2023-04-18T05:25:18.938Z,15.32
2023-04-18T05:28:50.729Z,17.15
2023-04-18T05:32:23.017Z,17.30
2023-04-18T05:35:55.736Z,19.42
2023-04-18T05:39:27.597Z,18.88
2023-04-18T05:43:01.015Z,17.33
2023-04-18T05:46:33.319Z,15.35
2023-04-18T05:50:06.290Z,15.98
2023-04-18T05:53:38.326Z,14.63
2023-04-18T05:57:10.273Z,15.13
2023-04-18T06:00:42.725Z,17.30
2023-04-18T06:04:14.875Z,14.98
2023-04-18T06:07:48.190Z,13.77
2023-04-18T06:11:23.194Z,18.05
2023-04-18T06:14:55.241Z,14.48
2023-04-18T06:18:27.039Z,19.20
2023-04-18T06:21:59.136Z,15.82
2023-04-18T06:25:30.720Z,16.40
2023-04-18T06:29:02.926Z,15.20
2023-04-18T06:32:34.638Z,19.30
2023-04-18T06:36:07.405Z,14.20
2023-04-18T06:39:40.697Z,15.82
2023-04-18T06:43:12.863Z,16.90
2023-04-18T06:46:45.120Z,19.33
2023-04-18T06:50:17.061Z,17.35
2023-04-18T06:53:52.603Z,18.73
2023-04-18T06:57:24.575Z,18.20
2023-04-18T07:00:56.783Z,15.93
2023-04-18T07:04:28.980Z,14.80
2023-04-18T07:08:01.049Z,14.60
2023-04-18T07:11:32.767Z,16.97
2023-04-18T07:15:05.093Z,14.52
2023-04-18T07:18:38.299Z,19.20
2023-04-18T07:22:11.168Z,17.07
2023-04-18T07:25:43.214Z,17.70
2023-04-18T07:29:14.905Z,18.58
2023-04-18T07:32:47.569Z,16.50
2023-04-18T07:36:19.577Z,18.37
2023-04-18T07:39:52.131Z,17.48
2023-04-18T07:43:24.292Z,16.05
2023-04-18T07:46:55.950Z,17.73
2023-04-18T07:50:28.369Z,15.27
2023-04-18T07:54:00.863Z,15.15
2023-04-18T07:57:33.128Z,15.45
2023-04-18T08:01:06.218Z,15.23
2023-04-18T08:04:38.103Z,17.13
2023-04-18T08:08:11.902Z,15.55
2023-04-18T08:11:43.703Z,16.15
2023-04-18T08:15:15.772Z,15.77
2023-04-18T08:18:47.688Z,19.45
2023-04-18T08:22:19.624Z,17.05
2023-04-18T08:25:51.597Z,13.55
2023-04-18T08:29:23.609Z,16.67
2023-04-18T08:32:55.359Z,18.20
2023-04-18T08:36:28.128Z,17.27
2023-04-18T08:40:00.062Z,15.33
2023-04-18T08:43:32.005Z,14.40
2023-04-18T08:47:04.061Z,14.63
2023-04-18T08:50:36.311Z,16.45
2023-04-18T08:54:09.510Z,16.63
2023-04-18T08:57:41.246Z,16.17
2023-04-18T09:01:13.805Z,15.45
2023-04-18T09:04:49.164Z,16.38
2023-04-18T09:08:24.053Z,18.63
2023-04-18T09:12:09.278Z,15.95
2023-04-18T09:15:41.596Z,15.43
2023-04-18T09:19:18.639Z,15.88
2023-04-18T09:22:52.441Z,16.43
2023-04-18T09:26:35.387Z,15.30
2023-04-18T09:30:08.131Z,15.98
2023-04-18T09:33:56.705Z,13.53
2023-04-18T09:37:29.552Z,14.77
2023-04-18T09:41:11.985Z,11.73
2023-04-18T09:45:03.590Z,12.88
2023-04-18T09:48:35.972Z,15.23
2023-04-18T09:52:08.868Z,13.13
2023-04-18T09:55:42.382Z,16.83
2023-04-18T09:59:21.121Z,15.13
2023-04-18T10:03:00.529Z,15.00
2023-04-18T10:06:39.826Z,14.27
2023-04-18T10:10:12.867Z,17.80
2023-04-18T10:13:48.155Z,14.82
2023-04-18T10:17:20.431Z,14.93
2023-04-18T10:21:01.989Z,18.48
2023-04-18T10:24:49.634Z,13.98
2023-04-18T10:28:21.914Z,14.65
2023-04-18T10:31:54.112Z,16.47
2023-04-18T10:35:26.574Z,13.50
2023-04-18T10:39:21.678Z,14.23
2023-04-18T10:42:53.990Z,13.10
2023-04-18T10:46:32.559Z,14.17
2023-04-18T10:50:07.043Z,13.48
2023-04-18T10:53:39.325Z,13.88
2023-04-18T10:57:12.049Z,14.30
2023-04-18T11:00:44.591Z,13.10
2023-04-18T11:04:17.152Z,11.63
2023-04-18T11:07:49.355Z,13.13
2023-04-18T11:11:21.811Z,13.73
2023-04-18T11:14:54.447Z,13.10
2023-04-18T11:18:26.509Z,11.15
2023-04-18T11:22:01.224Z,11.60
2023-04-18T11:25:37.002Z,15.60
2023-04-18T11:29:08.958Z,14.10
2023-04-18T11:32:41.140Z,13.52
2023-04-18T11:36:13.873Z,16.70
2023-04-18T11:39:46.026Z,11.30
2023-04-18T11:43:23.263Z,13.43
2023-04-18T11:46:55.576Z,12.93
2023-04-18T11:50:27.695Z,11.77
2023-04-18T11:53:59.384Z,12.60
2023-04-18T11:57:33.096Z,12.67
2023-04-18T12:01:21.812Z,13.98
2023-04-18T12:05:00.159Z,10.38
2023-04-18T12:08:32.925Z,11.90
2023-04-18T12:12:05.442Z,15.63
2023-04-18T12:15:43.493Z,13.52
2023-04-18T12:19:15.770Z,12.57
2023-04-18T12:22:49.596Z,9.57
2023-04-18T12:26:24.682Z,11.37
2023-04-18T12:29:56.646Z,12.63
2023-04-18T12:33:28.720Z,12.48
2023-04-18T12:37:00.973Z,11.00
2023-04-18T12:40:36.001Z,11.30
2023-04-18T12:44:07.751Z,11.65
2023-04-18T12:47:41.662Z,10.10
2023-04-18T12:51:13.445Z,11.40
2023-04-18T12:54:45.525Z,11.07
2023-04-18T12:58:18.734Z,11.52
2023-04-18T13:01:51.292Z,11.88
2023-04-18T13:05:29.799Z,11.60
2023-04-18T13:09:04.672Z,10.83
2023-04-18T13:12:37.275Z,10.23
2023-04-18T13:16:09.287Z,11.75
2023-04-18T13:19:41.706Z,9.70
2023-04-18T13:23:13.434Z,10.63
2023-04-18T13:26:45.566Z,11.40
2023-04-18T13:30:17.715Z,10.73
2023-04-18T13:33:49.648Z,11.05
2023-04-18T13:37:21.453Z,10.00
2023-04-18T13:41:08.615Z,12.02
2023-04-18T13:44:44.119Z,12.68
2023-04-18T13:48:16.609Z,9.43
2023-04-18T13:51:50.691Z,11.73
2023-04-18T13:55:22.777Z,10.75
2023-04-18T13:58:55.378Z,10.93
2023-04-18T14:02:28.029Z,10.38
2023-04-18T14:06:00.161Z,9.83
2023-04-18T14:09:32.076Z,9.45
2023-04-18T14:13:04.121Z,12.48
2023-04-18T14:16:36.182Z,11.37
2023-04-18T14:20:08.947Z,10.77
2023-04-18T14:23:40.709Z,15.63
2023-04-18T14:27:12.836Z,12.30
2023-04-18T14:30:44.826Z,14.77
2023-04-18T14:34:16.449Z,12.00
2023-04-18T14:37:48.603Z,13.38
2023-04-18T14:41:20.450Z,15.68
2023-04-18T14:44:52.412Z,11.47
2023-04-18T14:48:24.174Z,12.70
2023-04-18T14:51:56.418Z,9.68
2023-04-18T14:55:28.109Z,9.82
2023-04-18T14:59:00.623Z,10.97
2023-04-18T15:02:32.936Z,8.97
2023-04-18T15:06:05.053Z,10.95
2023-04-18T15:09:37.869Z,11.93
2023-04-18T15:13:11.194Z,10.27
2023-04-18T15:16:43.217Z,14.00
2023-04-18T15:20:15.072Z,11.68
2023-04-18T15:23:47.256Z,14.55
2023-04-18T15:27:19.282Z,12.03
2023-04-18T15:30:51.101Z,13.50
2023-04-18T15:34:23.315Z,12.55
2023-04-18T15:37:55.026Z,12.85
2023-04-18T15:41:27.122Z,11.83
2023-04-18T15:44:59.026Z,12.37
2023-04-18T15:48:34.169Z,11.27
2023-04-18T15:52:06.943Z,11.80
2023-04-18T15:55:38.711Z,12.37
2023-04-18T15:59:11.561Z,13.37
2023-04-18T16:02:45.139Z,12.88
2023-04-18T16:06:21.236Z,12.50
2023-04-18T16:09:53.420Z,11.73
2023-04-18T16:13:25.476Z,11.17
2023-04-18T16:16:59.010Z,12.85
2023-04-18T16:20:33.212Z,12.43
2023-04-18T16:24:05.426Z,12.83
2023-04-18T16:27:37.841Z,13.18
2023-04-18T16:31:09.621Z,11.85
2023-04-18T16:34:42.020Z,13.27
2023-04-18T16:38:14.478Z,10.87
2023-04-18T16:41:46.271Z,9.90
2023-04-18T16:45:18.820Z,14.45
2023-04-18T16:48:52.705Z,11.77
2023-04-18T16:52:25.005Z,14.63
2023-04-18T16:55:56.881Z,15.38
2023-04-18T16:59:29.034Z,12.10
2023-04-18T17:03:01.510Z,15.33
2023-04-18T17:06:34.023Z,11.37
2023-04-18T17:10:07.804Z,13.45
2023-04-18T17:13:41.777Z,14.73
2023-04-18T17:17:15.431Z,14.50
2023-04-18T17:20:47.793Z,16.87
2023-04-18T17:24:22.375Z,15.05
2023-04-18T17:27:54.335Z,22.48
2023-04-18T17:31:26.241Z,18.30
2023-04-18T17:34:58.409Z,13.02
2023-04-18T17:38:30.147Z,15.55
2023-04-18T17:42:02.279Z,13.23
2023-04-18T17:45:34.445Z,15.13
2023-04-18T17:49:07.574Z,13.32
2023-04-18T17:52:39.562Z,17.45
2023-04-18T17:56:11.542Z,16.27
2023-04-18T17:59:43.502Z,13.43
2023-04-18T18:03:16.440Z,14.07
2023-04-18T18:06:59.415Z,13.88
2023-04-18T18:10:31.662Z,14.93
2023-04-18T18:14:03.711Z,14.23
2023-04-18T18:17:35.847Z,15.18
2023-04-18T18:21:07.606Z,14.15
2023-04-18T18:24:40.109Z,14.00
2023-04-18T18:28:11.906Z,14.10
2023-04-18T18:31:45.967Z,13.82
2023-04-18T18:35:18.128Z,12.68
2023-04-18T18:38:50.063Z,13.23
2023-04-18T18:42:22.586Z,11.70
2023-04-18T18:45:54.317Z,15.82
2023-04-18T18:49:26.799Z,13.25
2023-04-18T18:52:58.610Z,12.53
2023-04-18T18:56:30.796Z,15.23
2023-04-18T19:00:09.782Z,17.60
2023-04-18T19:03:41.576Z,13.70
2023-04-18T19:07:13.744Z,13.63
2023-04-18T19:10:45.516Z,15.50
2023-04-18T19:14:17.547Z,19.10
2023-04-18T19:17:50.090Z,12.97
2023-04-18T19:21:22.421Z,14.70
2023-04-18T19:24:54.451Z,13.68
2023-04-18T19:28:26.414Z,15.93
2023-04-18T19:31:58.600Z,15.33
2023-04-18T19:35:32.734Z,12.18
2023-04-18T19:39:04.929Z,15.10
2023-04-18T19:42:37.086Z,15.30
2023-04-18T19:46:09.169Z,17.57
2023-04-18T19:49:41.011Z,14.70
2023-04-18T19:53:13.033Z,17.27
2023-04-18T19:56:44.742Z,16.13
2023-04-18T20:00:17.133Z,17.80
2023-04-18T20:03:49.014Z,15.02
2023-04-18T20:07:21.229Z,17.65
2023-04-18T20:10:53.066Z,16.43
2023-04-18T20:14:25.411Z,16.23
2023-04-18T20:17:57.237Z,16.02
2023-04-18T20:21:29.511Z,13.98
2023-04-18T20:25:01.563Z,17.07
2023-04-18T20:28:33.714Z,16.48
2023-04-18T20:32:06.184Z,14.75
2023-04-18T20:35:38.327Z,14.77
2023-04-18T20:39:10.533Z,15.27
2023-04-18T20:42:42.674Z,16.13
2023-04-18T20:46:14.701Z,16.50
2023-04-18T20:49:47.091Z,12.13
2023-04-18T20:53:26.764Z,14.63
2023-04-18T20:56:58.410Z,15.75
2023-04-18T21:00:30.458Z,15.93
2023-04-18T21:04:02.415Z,16.15
2023-04-18T21:07:35.690Z,14.50
2023-04-18T21:11:08.407Z,18.42
2023-04-18T21:14:40.214Z,14.77
2023-04-18T21:18:12.436Z,14.25
2023-04-18T21:21:44.109Z,15.98
2023-04-18T21:25:16.555Z,14.00
2023-04-18T21:28:58.695Z,15.40
2023-04-18T21:32:30.798Z,14.90
2023-04-18T21:36:02.847Z,14.13
2023-04-18T21:39:34.480Z,15.33
2023-04-18T21:43:06.546Z,14.18
2023-04-18T21:46:38.358Z,14.98
2023-04-18T21:50:10.941Z,13.27
2023-04-18T21:53:43.188Z,11.43
2023-04-18T21:57:15.239Z,16.20
2023-04-18T22:00:47.270Z,14.38
2023-04-18T22:04:21.131Z,13.93
2023-04-18T22:07:58.248Z,15.10
2023-04-18T22:11:30.677Z,14.65
2023-04-18T22:15:04.242Z,14.43
2023-04-18T22:18:37.612Z,13.40
2023-04-18T22:22:10.389Z,13.35
2023-04-18T22:25:42.569Z,13.32
2023-04-18T22:29:14.625Z,12.07
2023-04-18T22:32:46.700Z,14.18
2023-04-18T22:36:19.458Z,16.02
2023-04-18T22:39:51.635Z,14.30
2023-04-18T22:43:24.318Z,15.40
2023-04-18T22:46:56.422Z,12.60
2023-04-18T22:50:30.176Z,15.20
2023-04-18T22:54:02.218Z,9.77
2023-04-18T22:57:34.625Z,9.23
2023-04-18T23:01:06.812Z,10.25
2023-04-18T23:04:39.956Z,9.30
2023-04-18T23:08:12.726Z,12.15
2023-04-18T23:11:44.821Z,10.38
2023-04-18T23:15:17.034Z,8.97
2023-04-18T23:18:49.059Z,7.43
2023-04-18T23:22:21.386Z,11.80
2023-04-18T23:25:53.793Z,7.82
2023-04-18T23:29:25.456Z,7.67
2023-04-18T23:32:57.663Z,6.70
2023-04-18T23:36:29.852Z,8.57
2023-04-18T23:40:02.409Z,9.50
2023-04-18T23:43:35.259Z,6.70
2023-04-18T23:47:07.291Z,8.25
2023-04-18T23:50:47.745Z,8.73
2023-04-18T23:54:19.694Z,12.05
2023-04-18T23:57:51.430Z,7.47
